createdAt,value
2018-12-26T00:00:44.401Z,102794.66
2018-12-26T00:03:33.505Z,102792.14
2018-12-26T00:06:22.578Z,102794.91
2018-12-26T00:09:11.669Z,102793.58
2018-12-26T00:12:00.724Z,102796.74
2018-12-26T00:14:49.811Z,102793.53
2018-12-26T00:17:38.875Z,102794.80
2018-12-26T00:20:27.977Z,102792.44
2018-12-26T00:23:17.051Z,102789.75
2018-12-26T00:26:06.112Z,102781.94
2018-12-26T00:28:55.219Z,102790.52
2018-12-26T00:31:44.406Z,102784.48
2018-12-26T00:34:33.483Z,102786.96
2018-12-26T00:37:22.542Z,102789.15
2018-12-26T00:40:11.860Z,102791.56
2018-12-26T00:43:01.319Z,102788.36
2018-12-26T00:45:50.376Z,102785.59
2018-12-26T00:48:39.480Z,102776.61
2018-12-26T00:51:28.559Z,102774.12
2018-12-26T00:54:17.631Z,102781.48
2018-12-26T00:57:06.718Z,102783.59
2018-12-26T00:59:55.791Z,102778.40
2018-12-26T01:02:44.992Z,102779.61
2018-12-26T01:05:34.100Z,102774.82
2018-12-26T01:08:23.399Z,102770.15
2018-12-26T01:11:12.499Z,102764.16
2018-12-26T01:14:01.576Z,102764.01
2018-12-26T01:16:50.640Z,102759.61
2018-12-26T01:19:39.712Z,102756.23
2018-12-26T01:22:28.925Z,102748.75
2018-12-26T01:25:18.343Z,102748.44
2018-12-26T01:28:07.457Z,102748.67
2018-12-26T01:30:56.532Z,102756.66
2018-12-26T01:33:45.818Z,102765.00
2018-12-26T01:36:34.992Z,102758.77
2018-12-26T01:39:24.077Z,102761.48
2018-12-26T01:42:13.483Z,102760.11
2018-12-26T01:45:02.667Z,102763.44
2018-12-26T01:47:51.730Z,102759.81
2018-12-26T01:50:40.831Z,102768.81
2018-12-26T01:53:29.905Z,102758.78
2018-12-26T01:56:27.729Z,102754.80
2018-12-26T01:59:09.863Z,102752.50
2018-12-26T02:01:51.825Z,102753.70
2018-12-26T02:04:40.893Z,102746.42
2018-12-26T02:07:29.970Z,102742.47
2018-12-26T02:10:19.037Z,102748.22
2018-12-26T02:13:08.106Z,102743.33
2018-12-26T02:15:57.201Z,102744.19
2018-12-26T02:18:46.584Z,102745.16
2018-12-26T02:21:35.653Z,102742.66
2018-12-26T02:24:24.879Z,102740.43
2018-12-26T02:27:13.942Z,102736.01
2018-12-26T02:30:03.026Z,102737.49
2018-12-26T02:32:52.104Z,102733.45
2018-12-26T02:35:41.295Z,102729.33
2018-12-26T02:38:30.372Z,102730.82
2018-12-26T02:41:19.475Z,102720.61
2018-12-26T02:44:08.556Z,102720.45
2018-12-26T02:46:57.614Z,102725.12
2018-12-26T02:49:46.672Z,102721.70
2018-12-26T02:52:35.747Z,102715.94
2018-12-26T02:55:24.827Z,102712.41
2018-12-26T02:58:13.880Z,102711.28
2018-12-26T03:01:02.973Z,102708.55
2018-12-26T03:03:44.760Z,102716.49
2018-12-26T03:06:33.850Z,102709.66
2018-12-26T03:09:22.953Z,102709.75
2018-12-26T03:12:12.007Z,102708.72
2018-12-26T03:15:01.095Z,102712.67
2018-12-26T03:17:50.170Z,102710.61
2018-12-26T03:20:46.078Z,102708.95
2018-12-26T03:23:35.148Z,102706.95
2018-12-26T03:26:24.223Z,102703.21
2018-12-26T03:29:13.295Z,102702.28
2018-12-26T03:32:02.389Z,102708.01
2018-12-26T03:34:51.449Z,102699.72
2018-12-26T03:37:40.596Z,102700.72
2018-12-26T03:40:29.666Z,102696.48
2018-12-26T03:46:54.848Z,102695.36
2018-12-26T03:49:43.941Z,102688.33
2018-12-26T03:52:33.071Z,102682.94
2018-12-26T03:55:22.106Z,102685.48
2018-12-26T03:58:11.166Z,102673.58
2018-12-26T04:01:00.287Z,102676.64
2018-12-26T04:03:42.537Z,102680.84
2018-12-26T04:06:31.613Z,102675.20
2018-12-26T04:09:20.711Z,102678.50
2018-12-26T04:12:09.870Z,102680.45
2018-12-26T04:14:59.181Z,102680.98
2018-12-26T04:17:48.255Z,102687.19
2018-12-26T04:20:37.347Z,102678.87
2018-12-26T04:23:26.408Z,102680.59
2018-12-26T04:26:15.480Z,102679.11
2018-12-26T04:29:04.566Z,102673.85
2018-12-26T04:31:53.650Z,102674.69
2018-12-26T04:34:42.781Z,102670.18
2018-12-26T04:37:31.829Z,102665.92
2018-12-26T04:40:20.906Z,102660.93
2018-12-26T04:43:09.960Z,102659.80
2018-12-26T04:45:59.056Z,102662.85
2018-12-26T04:48:48.123Z,102668.77
2018-12-26T04:51:37.255Z,102674.17
2018-12-26T04:54:26.351Z,102674.52
2018-12-26T04:57:24.524Z,102666.84
2018-12-26T05:00:26.954Z,102668.41
2018-12-26T05:03:09.217Z,102669.17
2018-12-26T05:05:58.581Z,102663.02
2018-12-26T05:08:47.644Z,102661.99
2018-12-26T05:11:36.998Z,102665.19
2018-12-26T05:14:26.072Z,102665.69
2018-12-26T05:17:15.234Z,102670.51
2018-12-26T05:20:04.419Z,102672.67
2018-12-26T05:22:53.146Z,102665.27
2018-12-26T05:25:42.225Z,102672.38
2018-12-26T05:28:31.287Z,102674.08
2018-12-26T05:31:20.358Z,102675.73
2018-12-26T05:34:09.427Z,102672.38
2018-12-26T05:36:58.518Z,102675.50
2018-12-26T05:39:47.611Z,102674.83
2018-12-26T05:42:36.673Z,102668.30
2018-12-26T05:45:26.048Z,102672.39
2018-12-26T05:48:15.108Z,102663.02
2018-12-26T05:51:04.440Z,102669.17
2018-12-26T05:53:53.505Z,102677.44
2018-12-26T05:56:42.593Z,102676.55
2018-12-26T05:59:31.659Z,102680.95
2018-12-26T06:02:20.733Z,102677.22
2018-12-26T06:05:02.587Z,102681.91
2018-12-26T06:07:51.674Z,102687.33
2018-12-26T06:10:40.752Z,102678.77
2018-12-26T06:13:30.139Z,102679.38
2018-12-26T06:16:19.222Z,102686.28
2018-12-26T06:19:08.288Z,102680.30
2018-12-26T06:21:57.461Z,102683.30
2018-12-26T06:24:46.550Z,102688.33
2018-12-26T06:27:35.614Z,102684.56
2018-12-26T06:30:24.709Z,102684.66
2018-12-26T06:33:13.825Z,102684.88
2018-12-26T06:36:02.890Z,102686.96
2018-12-26T06:38:52.017Z,102684.92
2018-12-26T06:41:41.394Z,102683.20
2018-12-26T06:44:32.606Z,102682.53
2018-12-26T06:47:21.263Z,102677.58
2018-12-26T06:50:10.330Z,102683.70
2018-12-26T06:52:59.400Z,102670.50
2018-12-26T06:55:48.493Z,102680.48
2018-12-26T06:58:37.574Z,102677.59
2018-12-26T07:01:26.691Z,102686.56
2018-12-26T07:04:08.406Z,102690.76
2018-12-26T07:06:57.492Z,102689.20
2018-12-26T07:09:46.602Z,102691.95
2018-12-26T07:12:35.676Z,102695.39
2018-12-26T07:15:24.809Z,102694.27
2018-12-26T07:18:13.881Z,102704.31
2018-12-26T07:21:03.075Z,102707.45
2018-12-26T07:23:52.112Z,102710.33
2018-12-26T07:26:41.192Z,102712.41
2018-12-26T07:29:30.257Z,102706.73
2018-12-26T07:32:19.350Z,102709.95
2018-12-26T07:35:08.424Z,102714.47
2018-12-26T07:37:57.540Z,102708.83
2018-12-26T07:40:46.609Z,102716.00
2018-12-26T07:43:35.713Z,102702.70
2018-12-26T07:46:24.791Z,102701.74
2018-12-26T07:49:14.190Z,102699.66
2018-12-26T07:52:03.265Z,102692.00
2018-12-26T07:54:52.340Z,102697.20
2018-12-26T07:57:41.425Z,102693.84
2018-12-26T08:00:51.218Z,102702.80
2018-12-26T08:03:21.086Z,102710.33
2018-12-26T08:06:03.078Z,102711.09
2018-12-26T08:08:52.144Z,102711.73
2018-12-26T08:11:41.409Z,102706.55
2018-12-26T08:14:30.484Z,102708.72
2018-12-26T08:17:19.580Z,102710.33
2018-12-26T08:20:08.621Z,102708.98
2018-12-26T08:22:57.709Z,102714.31
2018-12-26T08:25:46.775Z,102707.91
2018-12-26T08:28:35.949Z,102707.50
2018-12-26T08:31:25.069Z,102711.31
2018-12-26T08:34:14.162Z,102712.25
2018-12-26T08:37:03.367Z,102711.55
2018-12-26T08:39:33.188Z,102727.31
2018-12-26T08:42:22.405Z,102718.61
2018-12-26T08:45:11.473Z,102724.69
2018-12-26T08:48:00.657Z,102721.70
2018-12-26T08:50:49.744Z,102721.50
2018-12-26T08:53:38.825Z,102720.29
2018-12-26T08:56:27.913Z,102717.30
2018-12-26T08:59:17.408Z,102729.08
2018-12-26T09:02:06.459Z,102729.07
2018-12-26T09:04:48.041Z,102738.30
2018-12-26T09:07:37.128Z,102733.64
2018-12-26T09:10:28.094Z,102736.86
2018-12-26T09:13:17.132Z,102732.19
2018-12-26T09:16:06.544Z,102734.20
2018-12-26T09:18:55.626Z,102741.09
2018-12-26T09:21:44.841Z,102739.20
2018-12-26T09:24:33.949Z,102750.64
2018-12-26T09:27:23.076Z,102743.75
2018-12-26T09:30:12.109Z,102748.36
2018-12-26T09:33:01.217Z,102745.02
2018-12-26T09:35:50.611Z,102750.95
2018-12-26T09:38:39.675Z,102748.91
2018-12-26T09:41:28.745Z,102754.98
2018-12-26T09:44:17.826Z,102751.92
2018-12-26T09:47:06.932Z,102747.81
2018-12-26T09:49:57.535Z,102746.80
2018-12-26T09:52:46.699Z,102744.20
2018-12-26T09:58:52.438Z,102743.08
2018-12-26T10:01:36.089Z,102737.08
2018-12-26T10:04:18.133Z,102726.11
2018-12-26T10:07:07.523Z,102727.12
2018-12-26T10:09:56.608Z,102723.70
2018-12-26T10:12:45.673Z,102715.76
2018-12-26T10:15:34.737Z,102703.11
2018-12-26T10:21:52.180Z,102705.71
2018-12-26T10:24:41.277Z,102706.23
2018-12-26T10:27:30.376Z,102699.45
2018-12-26T10:30:19.505Z,102694.46
2018-12-26T10:33:08.583Z,102698.28
2018-12-26T10:35:57.639Z,102697.01
2018-12-26T10:38:46.728Z,102709.81
2018-12-26T10:41:35.789Z,102704.94
2018-12-26T10:44:24.863Z,102704.16
2018-12-26T10:47:13.928Z,102696.93
2018-12-26T10:50:02.989Z,102693.02
2018-12-26T10:53:11.436Z,102699.31
2018-12-26T10:55:41.255Z,102692.05
2018-12-26T10:58:30.321Z,102684.88
2018-12-26T11:01:19.401Z,102677.14
2018-12-26T11:04:08.479Z,102674.37
2018-12-26T11:06:50.303Z,102666.09
2018-12-26T11:09:39.473Z,102660.52
2018-12-26T11:12:28.555Z,102655.94
2018-12-26T11:15:17.622Z,102649.92
2018-12-26T11:18:06.682Z,102641.70
2018-12-26T11:20:56.215Z,102638.58
2018-12-26T11:23:45.301Z,102632.34
2018-12-26T11:26:34.384Z,102625.87
2018-12-26T11:29:23.466Z,102633.21
2018-12-26T11:32:12.519Z,102617.27
2018-12-26T11:35:01.605Z,102619.87
2018-12-26T11:37:50.753Z,102617.17
2018-12-26T11:40:39.853Z,102617.88
2018-12-26T11:46:57.323Z,102620.30
2018-12-26T11:49:46.375Z,102618.34
2018-12-26T11:52:35.466Z,102612.95
2018-12-26T11:55:24.508Z,102612.25
2018-12-26T12:01:22.053Z,102613.77
2018-12-26T12:04:11.273Z,102609.69
2018-12-26T12:06:53.434Z,102611.23
2018-12-26T12:09:42.499Z,102603.09
2018-12-26T12:15:40.932Z,102612.84
2018-12-26T12:18:30.016Z,102610.63
2018-12-26T12:21:19.124Z,102609.98
2018-12-26T12:24:08.306Z,102606.78
2018-12-26T12:26:57.479Z,102607.57
2018-12-26T12:29:46.571Z,102601.92
2018-12-26T12:32:35.737Z,102608.11
2018-12-26T12:35:24.887Z,102604.35
2018-12-26T12:37:54.701Z,102600.34
2018-12-26T12:40:43.832Z,102596.55
2018-12-26T12:43:33.168Z,102600.32
2018-12-26T12:46:22.259Z,102600.59
2018-12-26T12:49:11.459Z,102594.39
2018-12-26T12:52:00.583Z,102592.66
2018-12-26T12:55:08.902Z,102589.44
2018-12-26T12:57:57.962Z,102582.74
2018-12-26T13:00:47.285Z,102580.59
2018-12-26T13:06:39.308Z,102580.78
2018-12-26T13:09:28.492Z,102574.38
2018-12-26T13:12:18.606Z,102570.80
2018-12-26T13:15:09.428Z,102569.44
2018-12-26T13:17:58.513Z,102572.57
2018-12-26T13:20:47.556Z,102566.55
2018-12-26T13:23:36.628Z,102568.94
2018-12-26T13:29:54.190Z,102563.64
2018-12-26T13:32:43.227Z,102566.22
2018-12-26T13:38:49.201Z,102558.19
2018-12-26T13:41:38.647Z,102554.81
2018-12-26T13:44:28.147Z,102557.20
2018-12-26T13:47:17.471Z,102556.80
2018-12-26T13:53:35.396Z,102555.72
2018-12-26T13:56:24.488Z,102555.91
2018-12-26T13:58:54.278Z,102555.43
2018-12-26T14:01:43.336Z,102554.76
2018-12-26T14:04:53.168Z,102552.08
2018-12-26T14:07:35.957Z,102547.03
2018-12-26T14:10:25.006Z,102552.40
2018-12-26T14:13:14.136Z,102542.36
2018-12-26T14:16:03.237Z,102539.94
2018-12-26T14:18:52.284Z,102544.38
2018-12-26T14:21:41.343Z,102545.27
2018-12-26T14:24:30.626Z,102543.73
2018-12-26T14:27:19.748Z,102540.41
2018-12-26T14:30:11.425Z,102529.39
2018-12-26T14:33:00.191Z,102527.56
2018-12-26T14:36:08.615Z,102529.04
2018-12-26T14:38:57.680Z,102532.52
2018-12-26T14:41:46.763Z,102523.16
2018-12-26T14:44:35.826Z,102534.87
2018-12-26T14:47:24.967Z,102528.97
2018-12-26T14:50:14.097Z,102531.09
2018-12-26T14:53:03.256Z,102528.10
2018-12-26T14:55:52.338Z,102532.42
2018-12-26T14:58:42.548Z,102532.55
2018-12-26T15:01:31.617Z,102535.48
2018-12-26T15:04:20.702Z,102535.50
2018-12-26T15:07:09.769Z,102526.89
2018-12-26T15:09:58.868Z,102525.78
2018-12-26T15:15:57.464Z,102529.46
2018-12-26T15:18:46.517Z,102528.31
2018-12-26T15:24:29.716Z,102532.06
2018-12-26T15:27:19.059Z,102538.27
2018-12-26T15:30:08.150Z,102531.23
2018-12-26T15:32:57.218Z,102533.23
2018-12-26T15:35:46.276Z,102528.76
2018-12-26T15:38:35.474Z,102527.75
2018-12-26T15:41:24.530Z,102523.83
2018-12-26T15:44:13.596Z,102525.17
2018-12-26T15:47:02.655Z,102532.22
2018-12-26T15:49:51.762Z,102530.64
2018-12-26T15:52:40.848Z,102526.48
2018-12-26T15:55:29.911Z,102523.89
2018-12-26T15:58:18.963Z,102523.94
2018-12-26T16:01:08.054Z,102525.82
2018-12-26T16:03:57.114Z,102524.95
2018-12-26T16:06:46.214Z,102521.91
2018-12-26T16:09:29.148Z,102516.00
2018-12-26T16:12:18.238Z,102513.58
2018-12-26T16:15:28.061Z,102515.77
2018-12-26T16:18:17.138Z,102513.26
2018-12-26T16:21:06.199Z,102513.95
2018-12-26T16:23:55.307Z,102514.52
2018-12-26T16:26:44.363Z,102517.77
2018-12-26T16:29:33.411Z,102509.94
2018-12-26T16:32:22.520Z,102511.41
2018-12-26T16:35:11.598Z,102502.09
2018-12-26T16:38:01.719Z,102507.36
2018-12-26T16:40:51.483Z,102510.45
2018-12-26T16:43:40.562Z,102502.13
2018-12-26T16:46:29.628Z,102499.08
2018-12-26T16:49:18.703Z,102494.48
2018-12-26T16:52:07.763Z,102493.20
2018-12-26T16:54:56.815Z,102491.89
2018-12-26T16:57:45.903Z,102486.55
2018-12-26T17:00:35.043Z,102483.61
2018-12-26T17:03:24.091Z,102473.30
2018-12-26T17:06:13.272Z,102469.50
2018-12-26T17:08:55.357Z,102466.64
2018-12-26T17:11:44.437Z,102460.30
2018-12-26T17:14:34.138Z,102464.23
2018-12-26T17:17:23.216Z,102465.67
2018-12-26T17:20:12.291Z,102469.50
2018-12-26T17:22:42.125Z,102469.00
2018-12-26T17:25:31.225Z,102467.59
2018-12-26T17:28:20.629Z,102470.05
2018-12-26T17:31:09.711Z,102468.03
2018-12-26T17:33:59.007Z,102468.16
2018-12-26T17:36:48.098Z,102474.44
2018-12-26T17:39:37.168Z,102480.38
2018-12-26T17:42:26.260Z,102473.70
2018-12-26T17:45:36.064Z,102480.77
2018-12-26T17:48:25.125Z,102480.07
2018-12-26T17:51:14.271Z,102475.88
2018-12-26T17:54:24.582Z,102468.34
2018-12-26T17:57:13.712Z,102470.56
2018-12-26T18:00:23.639Z,102469.28
2018-12-26T18:03:12.697Z,102473.06
2018-12-26T18:08:57.315Z,102473.48
2018-12-26T18:11:46.420Z,102470.92
2018-12-26T18:14:35.496Z,102473.54
2018-12-26T18:17:24.566Z,102473.89
2018-12-26T18:20:13.630Z,102476.61
2018-12-26T18:23:02.696Z,102480.99
2018-12-26T18:25:51.777Z,102477.95
2018-12-26T18:29:01.298Z,102472.28
2018-12-26T18:31:50.354Z,102473.41
2018-12-26T18:34:39.453Z,102477.80
2018-12-26T18:37:28.512Z,102475.91
2018-12-26T18:40:17.620Z,102477.47
2018-12-26T18:43:06.698Z,102471.31
2018-12-26T18:45:55.865Z,102472.14
2018-12-26T18:48:44.935Z,102458.02
2018-12-26T18:51:34.014Z,102463.95
2018-12-26T18:54:23.185Z,102454.83
2018-12-26T18:57:12.231Z,102458.55
2018-12-26T19:00:01.337Z,102455.66
2018-12-26T19:02:50.402Z,102451.08
2018-12-26T19:05:39.474Z,102451.13
2018-12-26T19:08:28.652Z,102448.36
2018-12-26T19:11:11.187Z,102451.92
2018-12-26T19:14:00.261Z,102452.72
2018-12-26T19:16:49.339Z,102450.14
2018-12-26T19:19:38.442Z,102447.66
2018-12-26T19:22:27.509Z,102454.83
2018-12-26T19:25:16.593Z,102449.69
2018-12-26T19:28:05.657Z,102449.45
2018-12-26T19:30:54.711Z,102453.27
2018-12-26T19:33:43.795Z,102450.78
2018-12-26T19:36:32.879Z,102449.95
2018-12-26T19:39:21.945Z,102452.08
2018-12-26T19:42:11.267Z,102445.66
2018-12-26T19:45:00.399Z,102450.05
2018-12-26T19:47:49.478Z,102449.26
2018-12-26T19:50:38.673Z,102443.44
2018-12-26T19:53:27.739Z,102445.26
2018-12-26T19:56:16.842Z,102442.66
2018-12-26T19:59:05.985Z,102442.77
2018-12-26T20:01:55.084Z,102442.16
2018-12-26T20:04:44.184Z,102440.24
2018-12-26T20:07:14.063Z,102434.27
2018-12-26T20:09:56.339Z,102431.17
2018-12-26T20:12:45.733Z,102438.52
2018-12-26T20:15:34.824Z,102441.03
2018-12-26T20:18:23.922Z,102436.19
2018-12-26T20:21:12.992Z,102438.61
2018-12-26T20:24:02.064Z,102437.44
2018-12-26T20:26:31.865Z,102433.48
2018-12-26T20:29:20.968Z,102430.72
2018-12-26T20:32:10.022Z,102424.53
2018-12-26T20:34:59.112Z,102422.27
2018-12-26T20:37:48.257Z,102422.16
2018-12-26T20:40:37.696Z,102414.59
2018-12-26T20:43:27.258Z,102414.59
2018-12-26T20:46:16.534Z,102416.05
2018-12-26T20:49:06.435Z,102408.30
2018-12-26T20:51:55.539Z,102403.95
2018-12-26T20:54:44.760Z,102398.85
2018-12-26T20:57:33.917Z,102400.00
2018-12-26T21:00:23.220Z,102395.47
2018-12-26T21:03:12.349Z,102391.88
2018-12-26T21:06:01.461Z,102396.99
2018-12-26T21:08:50.519Z,102393.74
2018-12-26T21:11:32.522Z,102395.47
2018-12-26T21:14:21.573Z,102392.70
2018-12-26T21:17:10.689Z,102393.74
2018-12-26T21:19:59.965Z,102388.70
2018-12-26T21:22:49.650Z,102388.72
2018-12-26T21:25:38.816Z,102383.31
2018-12-26T21:28:28.412Z,102385.34
2018-12-26T21:31:17.626Z,102384.83
2018-12-26T21:34:06.828Z,102375.48
2018-12-26T21:36:55.877Z,102378.85
2018-12-26T21:39:44.931Z,102371.71
2018-12-26T21:42:33.997Z,102375.00
2018-12-26T21:45:24.874Z,102369.05
2018-12-26T21:48:13.935Z,102367.38
2018-12-26T21:51:03.020Z,102369.72
2018-12-26T21:53:52.070Z,102366.60
2018-12-26T21:56:41.141Z,102361.70
2018-12-26T21:59:30.884Z,102360.75
2018-12-26T22:02:22.641Z,102363.88
2018-12-26T22:05:11.792Z,102351.51
2018-12-26T22:08:00.880Z,102357.03
2018-12-26T22:10:49.936Z,102355.55
2018-12-26T22:13:39.017Z,102353.38
2018-12-26T22:16:28.111Z,102350.94
2018-12-26T22:19:17.183Z,102352.63
2018-12-26T22:22:06.275Z,102350.66
2018-12-26T22:24:55.334Z,102349.83
2018-12-26T22:27:44.443Z,102354.56
2018-12-26T22:30:33.505Z,102356.73
2018-12-26T22:33:22.574Z,102352.16
2018-12-26T22:36:11.733Z,102350.48
2018-12-26T22:39:01.181Z,102356.02
2018-12-26T22:41:50.251Z,102348.87
2018-12-26T22:44:39.320Z,102339.80
2018-12-26T22:47:28.437Z,102341.48
2018-12-26T22:50:17.574Z,102335.84
2018-12-26T22:53:06.653Z,102340.48
2018-12-26T22:55:55.721Z,102333.43
2018-12-26T22:58:44.828Z,102338.86
2018-12-26T23:01:33.885Z,102343.90
2018-12-26T23:04:22.935Z,102347.45
2018-12-26T23:07:12.157Z,102339.90
2018-12-26T23:10:01.235Z,102339.80
2018-12-26T23:12:42.813Z,102340.12
2018-12-26T23:15:31.902Z,102333.55
2018-12-26T23:18:39.972Z,102333.39
2018-12-26T23:21:29.053Z,102330.55
2018-12-26T23:24:18.106Z,102326.18
2018-12-26T23:27:07.162Z,102328.03
2018-12-26T23:29:56.371Z,102327.39
2018-12-26T23:32:47.177Z,102328.84
2018-12-26T23:35:36.223Z,102328.30
2018-12-26T23:38:25.304Z,102327.06
2018-12-26T23:41:14.363Z,102324.75
2018-12-26T23:44:03.403Z,102323.61
2018-12-26T23:46:52.479Z,102319.55
2018-12-26T23:49:41.527Z,102318.70
2018-12-26T23:52:11.359Z,102322.62
2018-12-26T23:55:00.410Z,102314.03
2018-12-26T23:57:49.497Z,102309.39
